createdAt,value
2023-03-22T00:00:21.094Z,100.00
2023-03-22T00:04:28.454Z,100.00
2023-03-22T00:08:33.508Z,100.00
2023-03-22T00:12:35.837Z,100.00
2023-03-22T00:16:38.063Z,100.00
2023-03-22T00:20:47.738Z,100.00
2023-03-22T00:24:51.379Z,100.00
2023-03-22T00:28:53.650Z,100.00
2023-03-22T00:32:56.595Z,100.00
2023-03-22T00:36:59.385Z,100.00
2023-03-22T00:41:21.429Z,100.00
2023-03-22T00:45:23.698Z,100.00
2023-03-22T00:49:27.286Z,100.00
2023-03-22T00:53:29.656Z,100.00
2023-03-22T00:57:32.063Z,100.00
2023-03-22T01:01:34.515Z,100.00
2023-03-22T01:05:37.874Z,100.00
2023-03-22T01:09:40.682Z,100.00
2023-03-22T01:13:43.142Z,100.00
2023-03-22T01:17:45.382Z,100.00
2023-03-22T01:21:47.791Z,100.00
2023-03-22T01:25:50.958Z,100.00
2023-03-22T01:29:53.538Z,100.00
2023-03-22T01:33:56.383Z,100.00
2023-03-22T01:37:59.245Z,100.00
2023-03-22T01:42:03.485Z,100.00
2023-03-22T01:46:06.511Z,100.00
2023-03-22T01:50:09.419Z,100.00
2023-03-22T01:54:18.702Z,100.00
2023-03-22T01:58:21.773Z,100.00
2023-03-22T02:02:36.767Z,100.00
2023-03-22T02:06:58.217Z,100.00
2023-03-22T02:11:05.236Z,100.00
2023-03-22T02:15:20.968Z,100.00
2023-03-22T02:20:18.429Z,100.00
2023-03-22T02:24:46.213Z,100.00
2023-03-22T02:28:51.674Z,100.00
2023-03-22T02:33:25.184Z,100.00
2023-03-22T02:37:50.749Z,100.00
2023-03-22T02:42:02.214Z,100.00
2023-03-22T02:46:23.789Z,100.00
2023-03-22T02:50:38.517Z,100.00
2023-03-22T02:54:49.961Z,100.00
2023-03-22T02:58:58.014Z,100.00
2023-03-22T03:03:11.699Z,100.00
2023-03-22T03:07:25.150Z,100.00
2023-03-22T03:11:39.740Z,100.00
2023-03-22T03:15:46.559Z,100.00
2023-03-22T03:20:08.892Z,100.00
2023-03-22T03:24:28.776Z,100.00
2023-03-22T03:28:53.014Z,100.00
2023-03-22T03:33:04.937Z,100.00
2023-03-22T03:37:14.259Z,100.00
2023-03-22T03:41:20.794Z,100.00
2023-03-22T03:45:26.942Z,100.00
2023-03-22T03:49:29.429Z,100.00
2023-03-22T03:53:31.783Z,100.00
2023-03-22T03:57:34.060Z,100.00
2023-03-22T04:01:36.533Z,100.00
2023-03-22T04:05:48.494Z,100.00
2023-03-22T04:09:51.005Z,100.00
2023-03-22T04:14:06.702Z,100.00
2023-03-22T04:18:11.877Z,100.00
2023-03-22T04:22:18.580Z,100.00
2023-03-22T04:26:22.748Z,100.00
2023-03-22T04:30:42.080Z,100.00
2023-03-22T04:35:03.892Z,100.00
2023-03-22T04:39:08.920Z,100.00
2023-03-22T04:43:13.753Z,100.00
2023-03-22T04:47:28.075Z,100.00
2023-03-22T04:51:32.835Z,100.00
2023-03-22T04:55:58.473Z,100.00
2023-03-22T05:00:06.297Z,100.00
2023-03-22T05:04:09.437Z,100.00
2023-03-22T05:08:14.443Z,100.00
2023-03-22T05:12:21.699Z,100.00
2023-03-22T05:16:34.082Z,100.00
2023-03-22T05:20:39.116Z,100.00
2023-03-22T05:24:47.611Z,100.00
2023-03-22T05:28:57.049Z,100.00
2023-03-22T05:33:06.503Z,100.00
2023-03-22T05:37:17.391Z,100.00
2023-03-22T05:41:36.410Z,100.00
2023-03-22T05:45:39.715Z,100.00
2023-03-22T05:49:58.561Z,100.00
2023-03-22T05:54:01.976Z,100.00
2023-03-22T05:58:11.384Z,100.00
2023-03-22T06:02:16.609Z,100.00
2023-03-22T06:06:19.323Z,100.00
2023-03-22T06:10:32.954Z,100.00
2023-03-22T06:19:19.740Z,100.00
2023-03-22T06:23:22.415Z,100.00
2023-03-22T06:27:24.747Z,100.00
2023-03-22T06:31:27.354Z,100.00
2023-03-22T06:35:34.009Z,100.00
2023-03-22T06:39:36.564Z,100.00
2023-03-22T06:43:38.850Z,100.00
2023-03-22T06:47:50.723Z,100.00
2023-03-22T06:52:28.058Z,100.00
2023-03-22T06:56:32.192Z,100.00
2023-03-22T07:00:36.642Z,100.00
2023-03-22T07:04:40.983Z,100.00
2023-03-22T07:08:43.074Z,100.00
2023-03-22T07:12:47.876Z,100.00
2023-03-22T07:16:52.077Z,100.00
2023-03-22T07:20:56.322Z,100.00
2023-03-22T07:25:01.271Z,100.00
2023-03-22T07:29:06.400Z,100.00
2023-03-22T07:33:11.350Z,100.00
2023-03-22T07:37:15.482Z,100.00
2023-03-22T07:41:18.566Z,100.00
2023-03-22T07:45:41.419Z,100.00
2023-03-22T07:50:17.711Z,100.00
2023-03-22T07:54:33.572Z,100.00
2023-03-22T07:58:38.345Z,100.00
2023-03-22T08:02:40.657Z,100.00
2023-03-22T08:06:42.922Z,100.00
2023-03-22T08:10:50.792Z,100.00
2023-03-22T08:14:53.408Z,100.00
2023-03-22T08:19:00.238Z,100.00
2023-03-22T08:23:04.045Z,100.00
2023-03-22T08:27:32.238Z,100.00
2023-03-22T08:31:35.736Z,100.00
2023-03-22T08:35:40.182Z,100.00
2023-03-22T08:39:44.285Z,100.00
2023-03-22T08:44:02.009Z,100.00
2023-03-22T08:48:06.034Z,100.00
2023-03-22T08:52:20.610Z,100.00
2023-03-22T08:56:38.298Z,100.00
2023-03-22T09:00:57.401Z,100.00
2023-03-22T09:05:15.702Z,100.00
2023-03-22T09:09:18.495Z,100.00
2023-03-22T09:13:24.558Z,100.00
2023-03-22T09:17:31.522Z,100.00
2023-03-22T09:21:33.866Z,100.00
2023-03-22T09:25:52.160Z,100.00
2023-03-22T09:29:58.440Z,100.00
2023-03-22T09:34:01.022Z,100.00
2023-03-22T09:38:06.185Z,100.00
2023-03-22T09:42:30.750Z,100.00
2023-03-22T09:46:40.940Z,100.00
2023-03-22T09:50:49.468Z,100.00
2023-03-22T09:54:53.146Z,100.00
2023-03-22T09:59:04.889Z,100.00
2023-03-22T10:03:20.050Z,100.00
2023-03-22T10:07:31.000Z,100.00
2023-03-22T10:11:55.918Z,100.00
2023-03-22T10:16:02.386Z,100.00
2023-03-22T10:20:11.681Z,100.00
2023-03-22T10:24:18.512Z,100.00
2023-03-22T10:28:43.091Z,99.09
2023-03-22T10:32:57.136Z,89.19
2023-03-22T10:37:04.209Z,100.00
2023-03-22T10:41:07.157Z,100.00
2023-03-22T10:45:14.271Z,100.00
2023-03-22T10:49:26.352Z,100.00
2023-03-22T10:53:44.303Z,100.00
2023-03-22T10:58:16.108Z,96.66
2023-03-22T11:02:30.608Z,93.98
2023-03-22T11:06:38.152Z,100.00
2023-03-22T11:10:40.299Z,100.00
2023-03-22T11:14:45.816Z,96.55
2023-03-22T11:18:48.076Z,95.52
2023-03-22T11:22:51.322Z,90.49
2023-03-22T11:27:03.148Z,75.99
2023-03-22T11:31:11.616Z,89.57
2023-03-22T11:35:24.337Z,85.14
2023-03-22T11:39:28.821Z,88.75
2023-03-22T11:43:44.149Z,88.58
2023-03-22T11:47:46.575Z,88.57
2023-03-22T11:51:49.196Z,86.84
2023-03-22T11:55:54.084Z,86.38
2023-03-22T12:00:30.907Z,76.71
2023-03-22T12:04:38.410Z,78.20
2023-03-22T12:08:45.023Z,82.60
2023-03-22T12:12:53.433Z,80.07
2023-03-22T12:17:08.504Z,79.79
2023-03-22T12:21:13.902Z,83.35
2023-03-22T12:25:18.568Z,83.75
2023-03-22T12:29:21.804Z,84.06
2023-03-22T12:33:46.830Z,65.66
2023-03-22T12:37:54.295Z,77.69
2023-03-22T12:42:02.708Z,72.96
2023-03-22T12:46:06.563Z,76.97
2023-03-22T12:50:20.732Z,74.07
2023-03-22T12:54:25.754Z,71.14
2023-03-22T12:58:28.204Z,74.13
2023-03-22T13:02:34.618Z,69.37
2023-03-22T13:06:44.229Z,63.21
2023-03-22T13:11:04.594Z,52.45
2023-03-22T13:15:41.322Z,55.30
2023-03-22T13:19:53.630Z,50.24
2023-03-22T13:24:15.698Z,51.65
2023-03-22T13:28:29.694Z,52.67
2023-03-22T13:32:33.912Z,54.66
2023-03-22T13:36:37.535Z,55.00
2023-03-22T13:40:46.274Z,46.22
2023-03-22T13:45:03.692Z,45.86
2023-03-22T13:49:31.582Z,39.20
2023-03-22T13:53:36.778Z,44.34
2023-03-22T13:57:59.497Z,36.84
2023-03-22T14:02:33.835Z,38.34
2023-03-22T14:06:48.081Z,41.24
2023-03-22T14:11:01.558Z,41.47
2023-03-22T14:15:06.943Z,43.38
2023-03-22T14:19:17.359Z,39.32
